Time;durP1;ratioP1;P1;durP2;ratioP2;P2;SDS_P1;SDS_P2;PMS_P1;PMS_P2;Temp;Humidity;BMP_temperature;BMP_pressure;BME280_temperature;BME280_humidity;BME280_pressure;Samples;Min_cycle;Max_cycle;Signal;HPM_P1;HPM_P2
2022/06/07 00:02:06;;;;;;;14.55;11.90;;;;;;;19.89;56.78;101274.91;5002338;28;20033;-70
2022/06/07 00:04:33;;;;;;;14.77;10.82;;;;;;;20.33;55.41;101266.91;5004792;28;20072;-72
2022/06/07 00:06:59;;;;;;;15.18;11.02;;;;;;;19.71;57.05;101270.06;5004656;28;20034;-70
2022/06/07 00:09:25;;;;;;;12.25;10.07;;;;;;;19.79;56.33;101261.31;4998527;28;20038;-71
2022/06/07 00:11:50;;;;;;;16.65;9.60;;;;;;;19.53;57.38;101256.16;5009058;28;20049;-71
2022/06/07 00:14:16;;;;;;;15.60;10.00;;;;;;;19.80;56.53;101254.78;4997320;28;20110;-70
2022/06/07 00:16:41;;;;;;;11.45;10.30;;;;;;;19.98;55.47;101264.28;5008792;28;20528;-69
2022/06/07 00:19:07;;;;;;;15.02;9.40;;;;;;;19.57;57.13;101257.25;4991600;28;20050;-70
2022/06/07 00:21:32;;;;;;;14.63;10.02;;;;;;;20.61;54.42;101252.59;5009987;28;20421;-70
2022/06/07 00:24:00;;;;;;;11.82;9.20;;;;;;;20.13;55.99;101256.84;5006424;28;20045;-70
2022/06/07 00:26:28;;;;;;;11.70;8.52;;;;;;;20.14;54.95;101246.75;5004216;28;20038;-71
2022/06/07 00:28:53;;;;;;;11.93;8.02;;;;;;;19.00;58.46;101236.53;4995911;28;20041;-70
2022/06/07 00:31:19;;;;;;;11.18;8.18;;;;;;;19.91;56.23;101245.47;4996719;28;20117;-71
2022/06/07 00:33:45;;;;;;;14.75;9.05;;;;;;;19.72;56.50;101240.88;5001568;28;20137;-71
2022/06/07 00:36:10;;;;;;;12.82;7.93;;;;;;;20.03;55.83;101231.50;4992814;28;20584;-70
2022/06/07 00:38:36;;;;;;;15.48;9.07;;;;;;;20.21;55.86;101239.13;5001949;28;20046;-71
2022/06/07 00:41:03;;;;;;;15.73;9.23;;;;;;;19.33;57.97;101239.81;4997682;28;20032;-71
2022/06/07 00:43:30;;;;;;;17.48;8.70;;;;;;;19.06;59.03;101229.19;4998564;28;20393;-72
2022/06/07 00:45:57;;;;;;;15.02;11.32;;;;;;;19.90;56.24;101232.09;4997635;28;20094;-70
2022/06/07 00:48:23;;;;;;;12.00;9.27;;;;;;;18.96;59.67;101237.34;5006938;28;20042;-72
2022/06/07 00:51:10;;;;;;;16.92;9.60;;;;;;;19.87;56.03;101233.47;5005948;28;20034;-70
2022/06/07 00:53:36;;;;;;;14.25;8.90;;;;;;;20.51;54.56;101230.78;5003722;28;20034;-69
2022/06/07 00:56:03;;;;;;;10.98;8.20;;;;;;;20.05;55.48;101223.84;5002460;28;20045;-70
2022/06/07 00:58:30;;;;;;;13.85;9.60;;;;;;;19.51;57.38;101220.19;4993181;28;20038;-71
2022/06/07 01:00:57;;;;;;;11.68;9.02;;;;;;;19.91;56.72;101222.84;4996768;28;20038;-70
2022/06/07 01:03:23;;;;;;;12.65;9.02;;;;;;;19.78;56.28;101226.13;4991187;28;20093;-70
2022/06/07 01:05:54;;;;;;;14.20;9.43;;;;;;;20.56;54.51;101214.38;5004047;28;20707;-70
2022/06/07 01:11:04;;;;;;;14.93;9.60;;;;;;;19.86;56.48;101214.66;5003059;28;20140;-73
2022/06/07 01:13:32;;;;;;;11.52;7.90;;;;;;;19.03;58.99;101213.34;5009974;28;20049;-71
2022/06/07 01:16:01;;;;;;;13.02;9.15;;;;;;;19.11;58.87;101210.09;5009497;28;20034;-70
2022/06/07 01:18:27;;;;;;;13.77;9.35;;;;;;;18.83;59.74;101206.00;4998809;28;20485;-70
2022/06/07 01:21:28;;;;;;;11.98;9.38;;;;;;;19.59;57.42;101208.72;5013887;28;20038;-69
2022/06/07 01:23:53;;;;;;;14.95;10.65;;;;;;;19.71;57.52;101204.63;5009764;28;20041;-69
2022/06/07 01:26:18;;;;;;;11.25;8.77;;;;;;;20.18;54.69;101209.63;5013782;28;20025;-69
2022/06/07 01:28:44;;;;;;;13.27;9.57;;;;;;;20.04;55.93;101205.88;5007372;28;20034;-70
2022/06/07 01:31:10;;;;;;;15.70;9.43;;;;;;;19.36;57.41;101188.31;5006494;28;20209;-70
2022/06/07 01:33:35;;;;;;;10.85;8.88;;;;;;;19.03;58.71;101200.56;5006939;28;20034;-69
2022/06/07 01:36:04;;;;;;;17.77;10.20;;;;;;;19.69;56.97;101193.16;5001347;28;20065;-70
2022/06/07 01:38:37;;;;;;;16.60;11.00;;;;;;;19.45;57.57;101197.56;5000610;28;20115;-69
2022/06/07 01:43:48;;;;;;;13.80;10.65;;;;;;;19.92;56.69;101186.25;5005211;28;20107;-71
2022/06/07 01:46:14;;;;;;;15.63;9.68;;;;;;;18.94;59.05;101187.75;5011282;28;20041;-70
2022/06/07 01:48:39;;;;;;;13.00;9.50;;;;;;;18.46;60.87;101189.03;5007448;28;20044;-70
2022/06/07 01:51:08;;;;;;;16.40;10.15;;;;;;;19.41;58.96;101190.22;5013634;28;20034;-70
2022/06/07 01:53:34;;;;;;;12.40;9.93;;;;;;;19.27;58.37;101198.09;4998700;28;20048;-70
2022/06/07 01:56:12;;;;;;;12.25;10.43;;;;;;;19.32;58.57;101189.13;5007135;28;20054;-70
2022/06/07 01:58:39;;;;;;;14.48;10.80;;;;;;;20.29;55.80;101194.88;5000602;28;20042;-70
2022/06/07 02:01:04;;;;;;;21.55;10.93;;;;;;;19.53;57.09;101186.13;5004544;28;20556;-70
2022/06/07 02:03:30;;;;;;;16.40;11.25;;;;;;;19.51;58.25;101188.31;5007845;28;20041;-69
2022/06/07 02:06:01;;;;;;;14.77;10.82;;;;;;;19.22;57.94;101190.75;5000332;28;20558;-71
2022/06/07 02:08:27;;;;;;;18.05;13.65;;;;;;;20.53;54.71;101170.44;5000363;28;20120;-70
2022/06/07 02:10:54;;;;;;;14.20;10.85;;;;;;;20.46;54.96;101178.94;5009534;28;20036;-71
2022/06/07 02:13:20;;;;;;;16.65;11.20;;;;;;;20.13;55.89;101177.72;4994557;28;20038;-70
2022/06/07 02:15:47;;;;;;;15.55;11.50;;;;;;;19.56;57.79;101177.38;5010341;28;20030;-70
2022/06/07 02:18:13;;;;;;;21.50;11.95;;;;;;;19.97;56.58;101172.59;5009334;28;20042;-71
2022/06/07 02:20:39;;;;;;;15.60;11.35;;;;;;;20.92;53.48;101169.31;4994392;28;20046;-70
2022/06/07 02:23:05;;;;;;;18.08;11.20;;;;;;;19.97;56.16;101167.13;5012528;28;20042;-71
2022/06/07 02:25:35;;;;;;;18.13;11.88;;;;;;;20.20;56.06;101173.91;5000926;28;20040;-69
2022/06/07 02:28:01;;;;;;;14.68;10.52;;;;;;;19.99;55.95;101168.50;5006358;28;20038;-70
2022/06/07 02:30:27;;;;;;;15.90;11.98;;;;;;;20.83;53.50;101157.38;5005059;28;20426;-70
2022/06/07 02:32:52;;;;;;;17.90;10.88;;;;;;;21.04;52.98;101162.69;4994969;28;20037;-70
2022/06/07 02:35:18;;;;;;;15.60;11.10;;;;;;;20.59;54.74;101163.84;4999361;28;20478;-70
2022/06/07 02:37:44;;;;;;;18.30;11.90;;;;;;;20.82;53.55;101160.38;5006944;28;20085;-71
2022/06/07 02:40:09;;;;;;;21.17;12.40;;;;;;;20.56;54.22;101178.06;4998554;28;20037;-70
2022/06/07 02:42:35;;;;;;;19.73;10.98;;;;;;;20.27;54.79;101166.22;5011565;28;20038;-71
2022/06/07 02:45:01;;;;;;;16.45;11.20;;;;;;;21.19;52.32;101166.09;4998483;28;20029;-69
2022/06/07 02:47:26;;;;;;;16.92;11.52;;;;;;;21.01;52.98;101161.38;4999426;28;20057;-69
2022/06/07 02:49:52;;;;;;;15.73;11.85;;;;;;;20.36;54.25;101170.81;5002396;28;20022;-70
2022/06/07 02:52:18;;;;;;;14.50;11.10;;;;;;;20.34;54.08;101173.03;5009581;28;20281;-70
2022/06/07 02:54:43;;;;;;;17.55;10.88;;;;;;;20.55;54.00;101168.25;5005435;28;20489;-72
2022/06/07 02:57:09;;;;;;;15.02;11.05;;;;;;;19.91;55.67;101162.81;5003008;28;20042;-71
2022/06/07 02:59:34;;;;;;;16.90;11.55;;;;;;;20.19;54.86;101162.16;4999999;28;20035;-71
2022/06/07 03:02:00;;;;;;;18.25;11.88;;;;;;;20.33;54.34;101155.00;5000174;28;20521;-72
2022/06/07 03:04:26;;;;;;;15.90;11.32;;;;;;;20.48;54.04;101162.28;5011729;28;20029;-70
2022/06/07 03:06:51;;;;;;;17.52;11.57;;;;;;;20.36;54.57;101153.63;5005238;28;20029;-70
2022/06/07 03:09:17;;;;;;;20.38;12.00;;;;;;;20.19;55.20;101153.16;5007090;28;20036;-70
2022/06/07 03:11:42;;;;;;;16.20;11.75;;;;;;;20.73;53.34;101148.44;5006053;28;20521;-71
2022/06/07 03:14:07;;;;;;;17.08;11.55;;;;;;;20.49;53.74;101153.81;5002969;28;20072;-71
2022/06/07 03:16:33;;;;;;;17.38;12.40;;;;;;;20.48;54.36;101157.63;5008981;28;20038;-70
2022/06/07 03:18:59;;;;;;;18.88;11.20;;;;;;;19.52;57.11;101159.13;5007078;28;20132;-70
2022/06/07 03:21:25;;;;;;;17.85;10.82;;;;;;;19.67;56.15;101165.38;5003109;28;20041;-70
2022/06/07 03:23:50;;;;;;;17.52;12.63;;;;;;;19.80;56.22;101147.56;5001701;28;20034;-70
2022/06/07 03:26:16;;;;;;;15.23;11.68;;;;;;;20.21;54.94;101156.41;4999076;28;20038;-70
2022/06/07 03:28:41;;;;;;;19.80;12.70;;;;;;;20.74;53.23;101153.63;5004186;28;20076;-70
2022/06/07 03:31:14;;;;;;;17.98;11.27;;;;;;;20.10;55.14;101161.91;5010340;28;20112;-70
2022/06/07 03:33:41;;;;;;;17.88;12.27;;;;;;;19.98;55.53;101152.41;5004222;28;20557;-69
2022/06/07 03:36:11;;;;;;;18.75;12.50;;;;;;;19.63;56.73;101158.00;5008363;28;20069;-68
2022/06/07 03:38:37;;;;;;;20.63;12.68;;;;;;;20.23;54.92;101165.97;4998602;28;20038;-70
2022/06/07 03:41:02;;;;;;;21.40;13.27;;;;;;;19.89;55.89;101160.34;5000043;28;20068;-69
2022/06/07 03:43:27;;;;;;;16.65;10.60;;;;;;;19.67;56.35;101162.63;5004053;28;20080;-70
2022/06/07 03:45:53;;;;;;;20.52;12.95;;;;;;;19.91;55.08;101169.06;4992444;28;20375;-69
2022/06/07 03:48:18;;;;;;;18.50;12.10;;;;;;;20.20;54.68;101163.00;5004533;28;20129;-70
2022/06/07 03:50:44;;;;;;;19.15;11.65;;;;;;;20.02;54.71;101162.50;5004603;28;20046;-69
2022/06/07 03:53:11;;;;;;;16.73;11.48;;;;;;;20.80;52.99;101159.84;5008765;28;20068;-69
2022/06/07 03:55:41;;;;;;;15.63;11.13;;;;;;;19.99;54.52;101168.50;4987809;28;20039;-70
2022/06/07 03:58:06;;;;;;;17.33;10.60;;;;;;;19.89;54.49;101160.34;4990394;28;20034;-70
2022/06/07 04:00:32;;;;;;;20.23;12.30;;;;;;;20.61;52.96;101158.91;4990207;28;20057;-69
2022/06/07 04:02:57;;;;;;;13.73;10.82;;;;;;;20.32;54.05;101167.03;4986885;28;20053;-70
2022/06/07 04:05:23;;;;;;;17.05;11.32;;;;;;;20.25;53.73;101165.69;4989773;28;20038;-70
2022/06/07 04:10:32;;;;;;;18.50;11.80;;;;;;;20.82;52.23;101160.38;4990730;28;20049;-68
2022/06/07 04:12:57;;;;;;;18.75;9.32;;;;;;;20.13;53.88;101174.16;4989068;28;20178;-70
2022/06/07 04:15:23;;;;;;;17.48;11.10;;;;;;;20.21;53.47;101165.44;4986774;28;20035;-71
2022/06/07 04:17:48;;;;;;;16.92;10.82;;;;;;;19.86;54.69;101171.84;4974255;28;20391;-70
2022/06/07 04:20:14;;;;;;;15.35;10.10;;;;;;;20.18;54.27;101171.44;4980276;28;20045;-69
2022/06/07 04:22:39;;;;;;;13.15;10.15;;;;;;;20.61;52.93;101161.66;4990387;28;20042;-69
2022/06/07 04:25:05;;;;;;;13.57;10.02;;;;;;;20.11;53.97;101171.72;4981331;28;20030;-69
2022/06/07 04:27:30;;;;;;;15.60;10.50;;;;;;;19.60;55.43;101170.28;4983550;28;20073;-71
2022/06/07 04:29:56;;;;;;;14.95;10.77;;;;;;;19.96;54.54;101154.59;4983575;28;20034;-70
2022/06/07 04:32:22;;;;;;;18.98;10.57;;;;;;;20.00;54.70;101161.97;4983228;28;20046;-70
2022/06/07 04:34:47;;;;;;;17.67;11.82;;;;;;;20.47;53.32;101157.91;4990026;28;20045;-71
2022/06/07 04:37:13;;;;;;;13.55;10.43;;;;;;;20.08;53.96;101161.38;4982172;28;20043;-69
2022/06/07 04:39:38;;;;;;;16.88;10.60;;;;;;;20.77;52.45;101154.97;4984830;28;20038;-69
2022/06/07 04:42:04;;;;;;;15.80;11.18;;;;;;;19.03;57.19;101164.31;4977356;28;20039;-69
2022/06/07 04:44:30;;;;;;;19.58;10.63;;;;;;;19.10;57.69;101170.34;4990191;28;20494;-70
2022/06/07 04:46:55;;;;;;;17.00;8.90;;;;;;;18.34;59.99;101170.22;4983368;28;20030;-71
2022/06/07 04:49:21;;;;;;;15.82;10.65;;;;;;;19.48;57.04;101174.41;4984923;28;20042;-70
2022/06/07 04:51:46;;;;;;;13.40;9.20;;;;;;;18.40;59.22;101163.69;4986806;28;20034;-69
2022/06/07 04:54:12;;;;;;;17.75;10.75;;;;;;;18.47;59.41;101173.53;4988927;28;20037;-69
2022/06/07 04:56:37;;;;;;;11.63;9.38;;;;;;;18.27;60.31;101180.53;4991462;28;20084;-70
2022/06/07 04:59:04;;;;;;;16.15;11.13;;;;;;;19.04;57.96;101176.88;5009773;28;20374;-70
2022/06/07 05:01:35;;;;;;;13.63;9.85;;;;;;;19.11;57.67;101175.50;5000012;28;20026;-70
2022/06/07 05:04:02;;;;;;;15.15;9.95;;;;;;;18.94;58.38;101176.88;4996403;28;20042;-70
2022/06/07 05:06:30;;;;;;;14.65;10.73;;;;;;;18.63;58.99;101167.03;4999411;28;20049;-71
2022/06/07 05:09:03;;;;;;;15.88;10.38;;;;;;;18.94;58.32;101174.16;5004416;28;20532;-70
2022/06/07 05:11:29;;;;;;;19.30;11.00;;;;;;;19.61;55.93;101182.81;5006585;28;20521;-69
2022/06/07 05:13:56;;;;;;;15.73;10.82;;;;;;;19.38;56.85;101182.59;5027642;28;20033;-70
2022/06/07 05:16:31;;;;;;;16.17;10.95;;;;;;;18.94;57.69;101194.03;5026026;28;20042;-72
2022/06/07 05:18:57;;;;;;;16.48;10.43;;;;;;;19.09;58.27;101182.31;5026273;28;20073;-72
2022/06/07 05:21:25;;;;;;;16.50;9.90;;;;;;;18.54;59.43;101179.53;5023190;28;20041;-72
2022/06/07 05:23:51;;;;;;;15.23;10.10;;;;;;;19.46;56.88;101177.38;5028517;28;20036;-72
2022/06/07 05:26:47;;;;;;;17.73;10.57;;;;;;;19.89;55.45;101182.19;5023055;28;20041;-71
2022/06/07 05:29:23;;;;;;;14.15;9.98;;;;;;;19.51;56.73;101182.84;5022036;28;20033;-71
2022/06/07 05:31:49;;;;;;;16.13;10.90;;;;;;;19.47;56.40;101186.38;5028415;28;20034;-71
2022/06/07 05:34:14;;;;;;;15.05;9.10;;;;;;;19.00;57.55;101179.34;5027613;28;20547;-70
2022/06/07 05:36:40;;;;;;;14.70;10.07;;;;;;;19.30;57.24;101192.91;5024213;28;20046;-72
2022/06/07 05:39:06;;;;;;;14.60;10.60;;;;;;;19.32;57.17;101180.94;5027410;28;20045;-71
2022/06/07 05:41:32;;;;;;;17.63;10.35;;;;;;;19.90;55.66;101188.47;5020832;28;20041;-68
2022/06/07 05:43:58;;;;;;;15.82;9.95;;;;;;;19.47;56.45;101180.94;5012478;28;20030;-70
2022/06/07 05:46:24;;;;;;;12.50;9.07;;;;;;;19.48;56.11;101180.66;5023755;28;20093;-71
2022/06/07 05:48:50;;;;;;;13.57;8.93;;;;;;;19.53;56.08;101179.84;5023130;28;20068;-70
2022/06/07 05:51:16;;;;;;;13.38;8.85;;;;;;;19.42;56.67;101179.03;5025657;28;20130;-72
2022/06/07 05:53:41;;;;;;;17.02;9.40;;;;;;;19.69;56.15;101182.25;5026659;28;20061;-69
2022/06/07 05:56:13;;;;;;;19.85;10.02;;;;;;;19.19;57.51;101180.41;5025521;28;20054;-69
2022/06/07 05:58:40;;;;;;;12.43;8.23;;;;;;;19.43;56.97;101177.94;5027134;28;20045;-68
2022/06/07 06:01:07;;;;;;;18.08;9.98;;;;;;;19.30;56.29;101186.66;5028175;28;20048;-68
2022/06/07 06:03:32;;;;;;;13.13;8.85;;;;;;;19.72;55.27;101187.16;5027773;28;20410;-67
2022/06/07 06:05:58;;;;;;;12.65;9.55;;;;;;;19.00;57.29;101186.69;5032421;28;20053;-66
2022/06/07 06:11:17;;;;;;;11.63;9.00;;;;;;;19.09;57.66;101198.66;5031609;28;20040;-67
2022/06/07 06:13:43;;;;;;;10.63;7.55;;;;;;;18.77;58.26;101193.44;5031576;28;20116;-67
2022/06/07 06:16:14;;;;;;;15.52;8.65;;;;;;;18.85;57.33;101194.84;5031639;28;20656;-68
2022/06/07 06:18:40;;;;;;;20.70;9.43;;;;;;;20.23;53.71;101197.88;5026269;28;20029;-67
2022/06/07 06:21:07;;;;;;;15.73;7.97;;;;;;;19.53;55.50;101193.47;5031241;28;20030;-67
2022/06/07 06:23:33;;;;;;;16.20;7.82;;;;;;;18.82;58.02;101192.66;5031787;28;20045;-67
2022/06/07 06:25:58;;;;;;;13.85;8.30;;;;;;;19.13;56.76;101188.84;5032334;28;20470;-68
2022/06/07 06:28:24;;;;;;;14.93;8.43;;;;;;;19.11;57.04;101193.75;5024537;28;20034;-67
2022/06/07 06:30:49;;;;;;;12.98;8.20;;;;;;;18.74;58.09;101194.00;5031712;28;20060;-69
2022/06/07 06:33:16;;;;;;;12.45;8.25;;;;;;;19.02;56.65;101193.50;5032336;28;20052;-67
2022/06/07 06:35:53;;;;;;;13.50;8.32;;;;;;;20.72;53.21;101198.69;5031184;28;20036;-67
2022/06/07 06:38:20;;;;;;;14.15;8.98;;;;;;;19.95;53.63;101199.38;5030196;28;20037;-67
2022/06/07 06:40:45;;;;;;;14.57;8.35;;;;;;;20.01;52.92;101198.22;5031731;28;20037;-68
2022/06/07 06:43:16;;;;;;;16.25;9.35;;;;;;;20.40;52.68;101195.63;5031212;28;20048;-67
2022/06/07 06:45:42;;;;;;;15.00;8.43;;;;;;;19.88;54.21;101198.81;5030878;28;20033;-69
2022/06/07 06:48:09;;;;;;;10.63;8.30;;;;;;;20.09;53.22;101197.66;5030891;28;20041;-68
2022/06/07 06:50:35;;;;;;;18.40;9.80;;;;;;;20.34;52.17;101200.31;5030932;28;20087;-68
2022/06/07 06:53:00;;;;;;;24.23;9.68;;;;;;;19.35;54.13;101222.13;5028374;28;20049;-67
2022/06/07 06:55:26;;;;;;;15.93;9.07;;;;;;;19.75;53.38;101196.69;5026199;28;20049;-66
2022/06/07 06:57:51;;;;;;;15.63;9.40;;;;;;;20.05;53.17;101197.41;5031013;28;20494;-65
2022/06/07 07:00:17;;;;;;;15.02;8.52;;;;;;;19.82;53.81;101203.50;5030981;28;20291;-68
2022/06/07 07:02:44;;;;;;;12.75;7.75;;;;;;;19.85;54.25;101205.66;5030740;28;20033;-68
2022/06/07 07:05:12;;;;;;;13.27;7.57;;;;;;;20.00;53.70;101204.78;5030905;28;20057;-67
2022/06/07 07:07:39;;;;;;;14.55;9.02;;;;;;;19.36;54.53;101201.13;5031054;28;20033;-69
2022/06/07 07:10:05;;;;;;;17.08;8.75;;;;;;;19.12;55.10;101209.03;5024608;28;20070;-69
2022/06/07 07:12:35;;;;;;;11.90;7.55;;;;;;;19.64;53.72;101203.25;5030339;28;20037;-67
2022/06/07 07:15:02;;;;;;;10.18;7.28;;;;;;;20.02;52.73;101210.78;5023521;28;20379;-67
2022/06/07 07:17:28;;;;;;;9.82;7.40;;;;;;;19.61;53.66;101215.53;5029888;28;20529;-66
2022/06/07 07:19:55;;;;;;;15.40;8.38;;;;;;;19.91;53.31;101217.38;5030566;28;20028;-66
2022/06/07 07:22:22;;;;;;;14.32;7.85;;;;;;;20.09;51.98;101217.56;5030583;28;20034;-67
2022/06/07 07:24:48;;;;;;;9.95;7.03;;;;;;;19.42;53.80;101214.47;5024717;28;20036;-66
2022/06/07 07:27:13;;;;;;;11.82;7.05;;;;;;;19.63;52.97;101218.81;5019116;28;20037;-66
2022/06/07 07:29:39;;;;;;;13.63;7.85;;;;;;;19.78;53.05;101220.69;5030151;28;20033;-69
2022/06/07 07:32:04;;;;;;;13.15;6.93;;;;;;;19.59;53.25;101227.81;5028896;28;20048;-68
2022/06/07 07:34:30;;;;;;;15.27;8.48;;;;;;;19.75;52.10;101226.69;5026121;28;20034;-67
2022/06/07 07:36:57;;;;;;;15.98;9.10;;;;;;;19.67;52.71;101236.25;5023404;28;20087;-67
2022/06/07 07:39:25;;;;;;;15.48;9.10;;;;;;;19.83;51.95;101234.31;5027932;28;20041;-66
2022/06/07 07:41:52;;;;;;;8.93;5.68;;;;;;;18.97;53.45;101228.88;5030063;28;20108;-66
2022/06/07 07:44:20;;;;;;;17.83;8.77;;;;;;;19.96;52.04;101231.00;5029742;28;20503;-68
2022/06/07 07:46:47;;;;;;;9.45;7.60;;;;;;;19.65;52.03;101230.25;5029705;28;20143;-67
2022/06/07 07:49:17;;;;;;;16.02;8.80;;;;;;;19.68;52.07;101235.16;5029665;28;20116;-66
2022/06/07 07:51:45;;;;;;;10.18;7.68;;;;;;;20.13;51.74;101236.94;5028754;28;20493;-65
2022/06/07 07:54:15;;;;;;;13.65;7.95;;;;;;;19.90;52.70;101235.66;5029029;28;20037;-65
2022/06/07 07:56:41;;;;;;;13.32;8.75;;;;;;;20.60;50.57;101240.00;5029370;28;20041;-66
2022/06/07 07:59:07;;;;;;;11.30;7.60;;;;;;;19.93;52.47;101234.28;5030006;28;20041;-66
2022/06/07 08:01:34;;;;;;;11.45;7.70;;;;;;;20.29;51.87;101238.53;5023921;28;20033;-67
2022/06/07 08:04:01;;;;;;;12.30;7.10;;;;;;;20.39;51.51;101243.13;5029560;28;20292;-65
2022/06/07 08:06:28;;;;;;;11.32;8.13;;;;;;;20.37;51.30;101240.69;5030072;28;20037;-66
2022/06/07 08:08:56;;;;;;;20.25;8.57;;;;;;;21.17;49.66;101233.13;5026651;28;20448;-67
2022/06/07 08:11:24;;;;;;;12.57;8.52;;;;;;;20.97;49.86;101234.84;5026042;28;20033;-68
2022/06/07 08:13:50;;;;;;;12.68;7.65;;;;;;;20.84;50.01;101240.16;5024740;28;20100;-67
2022/06/07 08:16:15;;;;;;;9.63;7.40;;;;;;;21.16;48.89;101245.13;5028792;28;20520;-66
2022/06/07 08:18:41;;;;;;;10.05;7.88;;;;;;;21.40;48.14;101232.38;5028353;28;20485;-68
2022/06/07 08:21:14;;;;;;;13.32;7.95;;;;;;;20.50;50.75;101248.25;5028261;28;20030;-68
2022/06/07 08:23:39;;;;;;;10.93;6.78;;;;;;;19.82;51.77;101243.56;5028341;28;20042;-68
2022/06/07 08:26:06;;;;;;;11.00;7.65;;;;;;;19.94;50.60;101238.63;5028461;28;20044;-67
2022/06/07 08:28:32;;;;;;;13.55;8.10;;;;;;;19.81;51.62;101236.50;5028869;28;20024;-67
2022/06/07 08:30:58;;;;;;;11.02;7.97;;;;;;;20.69;49.79;101251.19;5028130;28;20029;-69
2022/06/07 08:38:59;;;;;;;18.40;9.20;;;;;;;21.58;48.00;101250.81;5026953;28;20119;-67
2022/06/07 08:41:43;;;;;;;13.60;8.05;;;;;;;20.38;50.21;101255.16;5026941;28;20040;-66
2022/06/07 08:44:16;;;;;;;12.43;8.38;;;;;;;20.26;50.40;101257.41;5025678;28;20109;-67
2022/06/07 08:46:41;;;;;;;16.52;7.40;;;;;;;19.91;50.93;101247.38;5028611;28;20536;-68
2022/06/07 08:49:10;;;;;;;12.18;8.18;;;;;;;20.28;50.65;101255.19;5027580;28;20153;-67
2022/06/07 08:51:50;;;;;;;16.50;8.05;;;;;;;20.52;49.94;101248.78;5027964;28;20037;-68
2022/06/07 08:54:24;;;;;;;13.95;6.05;;;;;;;20.09;51.11;101254.94;5026760;28;20033;-67
2022/06/07 08:56:51;;;;;;;10.55;7.25;;;;;;;20.80;49.43;101259.03;5028457;28;20036;-68
2022/06/07 08:59:19;;;;;;;15.25;7.90;;;;;;;20.91;48.91;101252.38;5026030;28;20441;-65
2022/06/07 09:02:19;;;;;;;11.43;6.72;;;;;;;21.02;48.18;101255.91;5029274;28;20068;-64
2022/06/07 09:04:45;;;;;;;12.52;7.35;;;;;;;20.70;48.52;101261.81;5028787;28;20056;-65
2022/06/07 09:07:16;;;;;;;10.90;8.32;;;;;;;21.28;48.07;101251.06;5028668;28;20037;-68
2022/06/07 09:12:38;;;;;;;13.40;8.27;;;;;;;21.82;46.01;101259.88;5024536;28;20101;-67
2022/06/07 09:15:12;;;;;;;12.25;8.27;;;;;;;22.17;45.92;101258.69;5026899;28;20033;-66
2022/06/07 09:17:40;;;;;;;10.70;6.65;;;;;;;20.94;47.43;101270.97;5028324;28;20083;-66
2022/06/07 09:20:35;;;;;;;13.30;8.05;;;;;;;20.77;47.87;101265.06;5025323;28;20048;-67
2022/06/07 09:23:14;;;;;;;9.98;8.45;;;;;;;21.31;48.29;101270.44;4965243;28;20046;-67
2022/06/07 09:25:48;;;;;;;19.60;9.25;;;;;;;21.05;47.79;101271.72;4968067;28;20053;-66
2022/06/07 09:28:20;;;;;;;16.42;8.68;;;;;;;21.16;48.16;101264.28;4966883;28;20039;-67
2022/06/07 09:30:54;;;;;;;15.25;9.45;;;;;;;21.85;46.68;101275.72;4967201;28;20046;-68
2022/06/07 09:33:22;;;;;;;11.95;9.60;;;;;;;21.97;46.20;101275.34;4962075;28;20043;-66
2022/06/07 09:35:49;;;;;;;16.02;9.55;;;;;;;22.33;45.75;101271.06;4966961;28;20466;-66
2022/06/07 09:38:29;;;;;;;12.35;7.28;;;;;;;21.75;46.68;101276.63;4967566;28;20047;-67
2022/06/07 09:41:36;;;;;;;10.15;8.68;;;;;;;21.73;45.92;101276.09;4971362;28;20047;-68
2022/06/07 09:43:52;;;;;;;18.80;9.95;;;;;;;21.60;47.05;101275.94;4971149;28;20058;-67
2022/06/07 09:46:25;;;;;;;11.77;9.30;;;;;;;22.76;45.05;101275.44;4954475;28;20050;-66
2022/06/07 09:48:51;;;;;;;13.93;8.98;;;;;;;22.42;44.99;101275.63;4970561;28;20154;-67
2022/06/07 09:51:23;;;;;;;11.85;9.10;;;;;;;22.49;44.82;101286.19;4970552;28;20042;-68
2022/06/07 09:54:04;;;;;;;13.32;8.57;;;;;;;21.42;46.82;101285.69;4970857;28;20099;-68
2022/06/07 09:56:38;;;;;;;14.30;8.40;;;;;;;21.32;46.67;101282.19;4970548;28;20097;-66
2022/06/07 09:59:42;;;;;;;9.63;8.27;;;;;;;21.87;46.37;101281.72;4982726;28;20117;-68
2022/06/07 10:02:48;;;;;;;13.40;8.13;;;;;;;21.74;45.79;101290.56;4961217;28;20085;-67
2022/06/07 10:05:16;;;;;;;16.17;8.02;;;;;;;21.66;45.98;101285.75;4966027;28;20042;-66
2022/06/07 10:07:53;;;;;;;16.15;9.02;;;;;;;21.65;46.16;101282.19;4966901;28;20448;-67
2022/06/07 10:10:30;;;;;;;13.68;8.30;;;;;;;22.32;45.33;101286.69;4963537;28;20042;-67
2022/06/07 10:13:21;;;;;;;14.07;8.27;;;;;;;22.42;45.24;101281.09;4960577;28;20046;-67
2022/06/07 10:16:06;;;;;;;10.82;8.80;;;;;;;22.65;44.44;101288.50;4968122;28;20034;-69
2022/06/07 10:18:50;;;;;;;12.15;8.45;;;;;;;22.85;42.94;101281.09;4967423;28;20554;-66
2022/06/07 10:21:32;;;;;;;11.25;6.32;;;;;;;22.77;43.51;101281.75;4966369;28;20470;-66
2022/06/07 10:24:01;;;;;;;9.95;8.02;;;;;;;22.05;44.37;101272.78;4968601;28;20396;-67
2022/06/07 10:26:53;;;;;;;16.17;9.73;;;;;;;22.63;43.63;101270.72;4967764;28;20084;-67
2022/06/07 10:29:47;;;;;;;15.27;8.63;;;;;;;24.20;41.29;101278.81;4968457;28;20041;-67
2022/06/07 10:32:43;;;;;;;13.38;7.72;;;;;;;23.95;41.55;101275.72;4966724;28;20527;-66
2022/06/07 10:35:10;;;;;;;17.27;8.80;;;;;;;22.75;43.13;101264.78;4965808;28;20154;-67
2022/06/07 10:37:45;;;;;;;13.23;8.25;;;;;;;23.01;43.11;101269.63;4968815;28;20113;-67
2022/06/07 10:40:10;;;;;;;16.83;7.30;;;;;;;23.34;40.83;101265.00;5027936;28;20398;-68
2022/06/07 10:42:47;;;;;;;10.82;7.88;;;;;;;22.77;42.97;101262.56;5029960;28;20307;-67
2022/06/07 10:45:19;;;;;;;12.68;7.80;;;;;;;23.00;41.65;101267.97;5030153;28;20069;-67
2022/06/07 10:48:03;;;;;;;12.65;7.63;;;;;;;23.26;42.00;101276.63;5029946;28;20653;-67
2022/06/07 10:50:37;;;;;;;13.57;8.73;;;;;;;23.00;42.65;101273.47;5023635;28;20034;-67
2022/06/07 10:53:12;;;;;;;17.05;9.23;;;;;;;23.53;41.38;101279.50;5008549;28;20061;-69
2022/06/07 10:55:40;;;;;;;11.93;8.57;;;;;;;23.09;43.08;101265.38;5031134;28;20037;-68
2022/06/07 10:58:30;;;;;;;13.75;7.95;;;;;;;23.85;41.01;101270.41;5029832;28;20045;-66
2022/06/07 11:01:19;;;;;;;14.50;8.95;;;;;;;23.57;42.62;101275.03;5022177;28;20037;-68
2022/06/07 11:09:19;;;;;;;11.38;7.88;;;;;;;22.46;44.11;101276.66;5026629;28;20045;-66
2022/06/07 11:09:54;;;;;;;12.90;9.18;;;;;;;23.01;42.90;101285.25;5029652;28;20039;-68
2022/06/07 11:12:24;;;;;;;9.70;7.70;;;;;;;22.96;42.90;101272.41;5028088;28;20055;-66
2022/06/07 11:15:40;;;;;;;9.10;6.87;;;;;;;23.15;41.34;101267.75;5029417;28;20033;-68
2022/06/07 11:18:07;;;;;;;9.18;7.10;;;;;;;23.06;42.43;101266.78;4981864;28;20062;-69
2022/06/07 11:20:35;;;;;;;11.55;8.07;;;;;;;22.64;43.20;101270.41;4964144;28;20110;-65
2022/06/07 11:23:01;;;;;;;13.25;7.80;;;;;;;23.05;41.96;101261.59;4985485;28;20030;-68
2022/06/07 11:25:43;;;;;;;11.98;8.00;;;;;;;22.75;42.89;101262.88;4984782;28;20529;-69
2022/06/07 11:28:28;;;;;;;11.13;7.97;;;;;;;22.11;44.36;101262.59;4976165;28;20096;-68
2022/06/07 11:31:01;;;;;;;11.52;7.97;;;;;;;23.69;41.55;101271.81;4973909;28;20527;-68
2022/06/07 11:33:51;;;;;;;12.75;7.75;;;;;;;24.31;40.84;101262.94;4986472;28;20511;-68
2022/06/07 11:36:19;;;;;;;11.32;7.35;;;;;;;23.35;40.54;101267.44;4973416;28;20043;-69
2022/06/07 11:38:54;;;;;;;11.43;8.52;;;;;;;23.15;42.01;101267.75;4981413;28;20351;-67
2022/06/07 11:41:37;;;;;;;11.63;8.32;;;;;;;23.53;42.29;101249.31;4988091;28;20081;-67
2022/06/07 11:44:31;;;;;;;13.18;7.57;;;;;;;23.67;41.17;101258.38;4981303;28;20121;-66
2022/06/07 11:47:19;;;;;;;15.55;7.97;;;;;;;24.62;40.88;101265.84;4929204;29;20048;-70
2022/06/07 11:49:44;;;;;;;15.93;10.32;;;;;;;24.75;40.60;101267.78;4924837;29;20032;-67